0F2 weather

Bowie Municipal Airport
Bowie, Texas, United States

Public forecast

Using degrees Fahrenheit for public forecast. Weather courtesy of forecast.io.

Current aviation weather report (METAR) for Bowie Municipal Airport

Retrieved 2020/06/02 00:15 UTC (14 minutes ago):

K0F2 020015Z AUTO 15004KT 10SM CLR 27/19 A3007 RMK AO2 T02710190

Closest aviation forecast (TAF) to Bowie Municipal Airport

Closest forecast is Sheppard Air Force Base-Wichita Falls Municipal Airport, 42.6 nm (79.0 km) WNW. Retrieved 2020-06-02 00:30 UTC (0 seconds ago):

TAF KSPS 012328Z 0200/0224 14012KT P6SM SCT050 BKN200 FM021300 19012G18KT P6SM BKN120